createdAt,value
2018-11-28T00:00:11.902Z,102631.47
2018-11-28T00:02:40.212Z,102632.68
2018-11-28T00:05:08.521Z,102637.18
2018-11-28T00:07:36.843Z,102633.37
2018-11-28T00:10:05.147Z,102636.23
2018-11-28T00:12:33.470Z,102634.42
2018-11-28T00:15:01.796Z,102640.70
2018-11-28T00:17:30.126Z,102636.80
2018-11-28T00:19:58.455Z,102639.07
2018-11-28T00:22:26.781Z,102639.33
2018-11-28T00:24:55.137Z,102639.39
2018-11-28T00:27:23.467Z,102642.44
2018-11-28T00:29:51.795Z,102641.83
2018-11-28T00:32:20.128Z,102646.27
2018-11-28T00:34:48.444Z,102647.77
2018-11-28T00:37:16.773Z,102651.81
2018-11-28T00:39:45.102Z,102646.44
2018-11-28T00:42:13.463Z,102645.02
2018-11-28T00:44:41.805Z,102643.46
2018-11-28T00:47:10.148Z,102648.25
2018-11-28T00:49:38.570Z,102652.34
2018-11-28T00:52:06.898Z,102653.30
2018-11-28T00:54:35.228Z,102654.16
2018-11-28T00:57:03.553Z,102660.09
2018-11-28T00:59:31.886Z,102662.84
2018-11-28T01:02:00.216Z,102667.45
2018-11-28T01:04:28.558Z,102673.70
2018-11-28T01:06:56.870Z,102673.43
2018-11-28T01:09:25.198Z,102673.94
2018-11-28T01:11:53.521Z,102675.95
2018-11-28T01:14:21.844Z,102681.65
2018-11-28T01:16:50.167Z,102685.52
2018-11-28T01:19:18.514Z,102681.59
2018-11-28T01:21:46.837Z,102688.09
2018-11-28T01:24:15.145Z,102689.23
2018-11-28T01:26:43.495Z,102693.80
2018-11-28T01:29:11.812Z,102700.30
2018-11-28T01:31:40.130Z,102714.12
2018-11-28T01:34:08.455Z,102726.70
2018-11-28T01:36:36.773Z,102728.06
2018-11-28T01:39:05.100Z,102730.09
2018-11-28T01:41:33.437Z,102732.61
2018-11-28T01:44:01.764Z,102730.20
2018-11-28T01:46:30.096Z,102731.69
2018-11-28T01:48:58.420Z,102729.94
2018-11-28T01:51:26.748Z,102734.83
2018-11-28T01:53:55.077Z,102730.59
2018-11-28T01:56:23.400Z,102725.90
2018-11-28T01:58:51.750Z,102716.70
2018-11-28T02:01:20.098Z,102718.41
2018-11-28T02:03:48.386Z,102721.37
2018-11-28T02:06:16.703Z,102719.34
2018-11-28T02:08:45.019Z,102720.95
2018-11-28T02:11:13.346Z,102721.41
2018-11-28T02:13:41.659Z,102725.14
2018-11-28T02:16:09.972Z,102723.84
2018-11-28T02:18:38.295Z,102721.98
2018-11-28T02:21:06.609Z,102726.38
2018-11-28T02:23:34.929Z,102727.36
2018-11-28T02:26:03.248Z,102723.83
2018-11-28T02:28:31.603Z,102728.69
2018-11-28T02:30:59.933Z,102730.34
2018-11-28T02:33:28.245Z,102732.94
2018-11-28T02:35:56.559Z,102737.99
2018-11-28T02:38:24.885Z,102741.61
2018-11-28T02:40:53.199Z,102737.11
2018-11-28T02:43:21.519Z,102738.69
2018-11-28T02:45:49.842Z,102738.21
2018-11-28T02:48:18.156Z,102746.16
2018-11-28T02:50:46.481Z,102756.91
2018-11-28T02:53:14.814Z,102767.16
2018-11-28T02:55:43.139Z,102773.00
2018-11-28T02:58:11.467Z,102773.51
2018-11-28T03:00:39.794Z,102774.27
2018-11-28T03:03:08.135Z,102767.19
2018-11-28T03:05:36.476Z,102767.45
2018-11-28T03:08:04.808Z,102770.80
2018-11-28T03:10:33.128Z,102767.15
2018-11-28T03:13:01.445Z,102767.02
2018-11-28T03:15:29.771Z,102770.59
2018-11-28T03:17:58.083Z,102773.81
2018-11-28T03:20:26.403Z,102767.89
2018-11-28T03:22:54.948Z,102764.47
2018-11-28T03:25:23.296Z,102765.25
2018-11-28T03:27:51.608Z,102767.55
2018-11-28T03:30:19.945Z,102777.91
2018-11-28T03:32:48.269Z,102779.77
2018-11-28T03:35:16.603Z,102785.02
2018-11-28T03:37:45.185Z,102784.71
2018-11-28T03:40:13.512Z,102784.64
2018-11-28T03:42:41.852Z,102782.77
2018-11-28T03:45:10.182Z,102787.80
2018-11-28T03:47:38.515Z,102788.65
2018-11-28T03:50:06.841Z,102795.72
2018-11-28T03:52:35.165Z,102804.25
2018-11-28T03:55:03.504Z,102793.37
2018-11-28T03:57:31.833Z,102800.53
2018-11-28T04:00:00.159Z,102805.59
2018-11-28T04:02:28.483Z,102805.91
2018-11-28T04:04:56.807Z,102808.96
2018-11-28T04:07:25.132Z,102810.84
2018-11-28T04:09:53.485Z,102812.83
2018-11-28T04:12:21.793Z,102817.59
2018-11-28T04:14:50.124Z,102816.53
2018-11-28T04:17:18.448Z,102824.08
2018-11-28T04:19:46.777Z,102828.30
2018-11-28T04:22:15.165Z,102826.23
2018-11-28T04:24:43.480Z,102830.30
2018-11-28T04:27:11.817Z,102838.66
2018-11-28T04:29:40.144Z,102841.16
2018-11-28T04:32:08.481Z,102842.30
2018-11-28T04:34:36.814Z,102847.48
2018-11-28T04:37:05.143Z,102853.35
2018-11-28T04:39:33.475Z,102854.00
2018-11-28T04:42:01.886Z,102855.95
2018-11-28T04:44:30.199Z,102855.58
2018-11-28T04:46:58.539Z,102857.05
2018-11-28T04:49:26.867Z,102851.86
2018-11-28T04:51:55.190Z,102853.87
2018-11-28T04:54:23.514Z,102852.34
2018-11-28T04:56:51.826Z,102857.21
2018-11-28T04:59:20.141Z,102861.27
2018-11-28T05:01:48.472Z,102868.75
2018-11-28T05:04:16.797Z,102867.73
2018-11-28T05:06:45.122Z,102874.87
2018-11-28T05:09:13.452Z,102879.47
2018-11-28T05:11:41.782Z,102883.87
2018-11-28T05:14:10.100Z,102891.27
2018-11-28T05:16:38.441Z,102892.58
2018-11-28T05:19:06.786Z,102896.33
2018-11-28T05:21:35.112Z,102899.43
2018-11-28T05:24:03.705Z,102907.40
2018-11-28T05:26:32.042Z,102906.04
2018-11-28T05:29:00.354Z,102907.53
2018-11-28T05:31:28.679Z,102910.63
2018-11-28T05:33:57.159Z,102910.60
2018-11-28T05:36:26.185Z,102905.38
2018-11-28T05:38:54.713Z,102909.69
2018-11-28T05:41:23.040Z,102907.24
2018-11-28T05:43:51.352Z,102911.86
2018-11-28T05:46:19.679Z,102912.45
2018-11-28T05:48:47.999Z,102920.09
2018-11-28T05:51:16.319Z,102923.11
2018-11-28T05:53:44.668Z,102927.61
2018-11-28T05:56:12.983Z,102926.61
2018-11-28T05:58:41.294Z,102934.94
2018-11-28T06:01:09.629Z,102938.58
2018-11-28T06:03:37.953Z,102936.27
2018-11-28T06:06:06.293Z,102931.97
2018-11-28T06:08:34.621Z,102937.02
2018-11-28T06:11:02.949Z,102942.68
2018-11-28T06:13:31.287Z,102942.39
2018-11-28T06:15:59.631Z,102947.00
2018-11-28T06:18:27.951Z,102949.48
2018-11-28T06:20:56.510Z,102951.06
2018-11-28T06:23:24.660Z,102954.42
2018-11-28T06:25:53.446Z,102964.87
2018-11-28T06:28:21.785Z,102964.37
2018-11-28T06:30:50.140Z,102963.92
2018-11-28T06:33:18.476Z,102968.05
2018-11-28T06:35:46.882Z,102976.47
2018-11-28T06:38:15.219Z,102981.14
2018-11-28T06:40:43.563Z,102993.47
2018-11-28T06:43:11.909Z,102996.66
2018-11-28T06:45:40.803Z,102995.71
2018-11-28T06:48:09.161Z,102997.44
2018-11-28T06:50:37.502Z,103000.89
2018-11-28T06:53:06.126Z,103006.36
2018-11-28T06:55:34.467Z,103009.16
2018-11-28T06:58:02.802Z,103014.34
2018-11-28T07:00:31.137Z,103016.84
2018-11-28T07:02:59.467Z,103016.86
2018-11-28T07:05:27.798Z,103015.46
2018-11-28T07:07:56.424Z,103018.58
2018-11-28T07:10:24.745Z,103017.95
2018-11-28T07:12:53.129Z,103026.75
2018-11-28T07:15:21.759Z,103028.06
2018-11-28T07:17:50.101Z,103030.16
2018-11-28T07:20:18.453Z,103030.77
2018-11-28T07:22:47.050Z,103039.00
2018-11-28T07:25:15.404Z,103045.38
2018-11-28T07:27:45.332Z,103050.66
2018-11-28T07:30:12.079Z,103054.83
2018-11-28T07:32:40.739Z,103060.95
2018-11-28T07:35:09.073Z,103067.89
2018-11-28T07:37:37.490Z,103068.95
2018-11-28T07:40:05.798Z,103070.02
2018-11-28T07:42:34.170Z,103076.17
2018-11-28T07:45:02.526Z,103077.09
2018-11-28T07:47:30.905Z,103084.88
2018-11-28T07:49:59.220Z,103086.16
2018-11-28T07:52:27.545Z,103089.19
2018-11-28T07:54:55.884Z,103088.00
2018-11-28T07:57:24.269Z,103087.66
2018-11-28T07:59:52.610Z,103091.06
2018-11-28T08:02:21.202Z,103091.48
2018-11-28T08:04:49.533Z,103094.29
2018-11-28T08:07:17.899Z,103094.91
2018-11-28T08:09:46.237Z,103097.23
2018-11-28T08:12:14.578Z,103103.24
2018-11-28T08:14:42.925Z,103108.75
2018-11-28T08:17:11.261Z,103112.55
2018-11-28T08:19:39.597Z,103115.81
2018-11-28T08:22:07.942Z,103122.75
2018-11-28T08:24:36.269Z,103123.12
2018-11-28T08:27:04.609Z,103124.81
2018-11-28T08:29:32.927Z,103124.48
2018-11-28T08:32:01.310Z,103124.80
2018-11-28T08:34:29.594Z,103127.91
2018-11-28T08:36:57.938Z,103128.98
2018-11-28T08:39:26.309Z,103131.30
2018-11-28T08:41:54.690Z,103129.17
2018-11-28T08:44:22.996Z,103133.55
2018-11-28T08:46:51.346Z,103136.55
2018-11-28T08:49:19.672Z,103142.33
2018-11-28T08:51:48.013Z,103142.97
2018-11-28T08:54:16.365Z,103150.23
2018-11-28T08:56:44.721Z,103147.15
2018-11-28T08:59:13.043Z,103148.78
2018-11-28T09:01:41.370Z,103153.73
2018-11-28T09:04:09.706Z,103151.80
2018-11-28T09:06:38.041Z,103152.34
2018-11-28T09:09:06.370Z,103151.34
2018-11-28T09:11:34.740Z,103151.42
2018-11-28T09:14:04.688Z,103156.02
2018-11-28T09:16:31.431Z,103160.16
2018-11-28T09:18:59.763Z,103164.93
2018-11-28T09:21:28.091Z,103161.44
2018-11-28T09:23:56.421Z,103161.41
2018-11-28T09:26:24.753Z,103158.95
2018-11-28T09:28:53.134Z,103163.13
2018-11-28T09:31:21.462Z,103164.33
2018-11-28T09:33:49.815Z,103159.24
2018-11-28T09:36:18.436Z,103160.87
2018-11-28T09:38:47.069Z,103161.50
2018-11-28T09:41:15.433Z,103164.46
2018-11-28T09:43:43.775Z,103162.98
2018-11-28T09:46:12.092Z,103165.01
2018-11-28T09:48:40.427Z,103164.34
2018-11-28T09:51:08.758Z,103166.13
2018-11-28T09:53:37.086Z,103166.41
2018-11-28T09:56:05.410Z,103168.93
2018-11-28T09:58:33.756Z,103170.27
2018-11-28T10:01:02.092Z,103172.45
2018-11-28T10:03:30.424Z,103168.77
2018-11-28T10:05:58.743Z,103172.05
2018-11-28T10:08:27.071Z,103173.30
2018-11-28T10:10:55.384Z,103167.62
2018-11-28T10:13:23.707Z,103163.30
2018-11-28T10:15:52.025Z,103165.31
2018-11-28T10:18:20.432Z,103166.85
2018-11-28T10:20:48.756Z,103170.86
2018-11-28T10:23:17.087Z,103166.91
2018-11-28T10:25:45.420Z,103163.73
2018-11-28T10:28:13.747Z,103172.93
2018-11-28T10:30:42.396Z,103176.27
2018-11-28T10:33:10.716Z,103173.73
2018-11-28T10:35:39.035Z,103174.55
2018-11-28T10:38:07.369Z,103179.47
2018-11-28T10:40:35.692Z,103177.06
2018-11-28T10:43:04.053Z,103175.21
2018-11-28T10:45:32.375Z,103172.05
2018-11-28T10:48:00.691Z,103168.16
2018-11-28T10:50:29.167Z,103175.22
2018-11-28T10:52:57.481Z,103177.08
2018-11-28T10:55:25.824Z,103177.03
2018-11-28T10:57:54.142Z,103177.36
2018-11-28T11:00:22.570Z,103177.77
2018-11-28T11:02:50.895Z,103182.05
2018-11-28T11:05:19.229Z,103176.44
2018-11-28T11:07:50.489Z,103175.75
2018-11-28T11:10:23.724Z,103174.28
2018-11-28T11:12:52.050Z,103178.05
2018-11-28T11:15:20.367Z,103182.81
2018-11-28T11:17:48.704Z,103175.86
2018-11-28T11:20:17.021Z,103173.44
2018-11-28T11:22:45.347Z,103179.09
2018-11-28T11:25:13.660Z,103178.33
2018-11-28T11:27:41.996Z,103177.20
2018-11-28T11:30:10.318Z,103180.34
2018-11-28T11:32:38.661Z,103183.20
2018-11-28T11:35:06.998Z,103185.01
2018-11-28T11:37:35.303Z,103180.05
2018-11-28T11:40:03.638Z,103176.89
2018-11-28T11:42:31.988Z,103177.37
2018-11-28T11:45:00.361Z,103175.34
2018-11-28T11:47:28.692Z,103176.96
2018-11-28T11:49:57.849Z,103176.78
2018-11-28T11:52:26.433Z,103181.44
2018-11-28T11:54:55.652Z,103183.20
2018-11-28T11:57:23.983Z,103181.61
2018-11-28T11:59:52.319Z,103187.31
2018-11-28T12:02:20.672Z,103184.66
2018-11-28T12:04:48.985Z,103185.39
2018-11-28T12:07:17.335Z,103186.78
2018-11-28T12:09:45.650Z,103188.66
2018-11-28T12:12:13.984Z,103183.63
2018-11-28T12:14:42.353Z,103186.81
2018-11-28T12:17:10.666Z,103190.48
2018-11-28T12:19:38.997Z,103198.12
2018-11-28T12:22:07.315Z,103194.33
2018-11-28T12:24:35.634Z,103192.80
2018-11-28T12:27:03.974Z,103187.03
2018-11-28T12:29:32.311Z,103191.73
2018-11-28T12:32:00.642Z,103198.45
2018-11-28T12:34:28.973Z,103202.09
2018-11-28T12:36:57.306Z,103200.95
2018-11-28T12:39:25.624Z,103200.75
2018-11-28T12:41:54.920Z,103197.74
2018-11-28T12:44:23.557Z,103199.85
2018-11-28T12:46:51.947Z,103196.38
2018-11-28T12:49:20.267Z,103191.12
2018-11-28T12:51:49.096Z,103189.78
2018-11-28T12:54:17.418Z,103189.14
2018-11-28T12:56:45.739Z,103192.78
2018-11-28T12:59:14.072Z,103189.72
2018-11-28T13:01:42.701Z,103191.76
2018-11-28T13:04:11.037Z,103195.45
2018-11-28T13:06:39.371Z,103192.20
2018-11-28T13:09:07.717Z,103191.77
2018-11-28T13:11:36.055Z,103197.09
2018-11-28T13:14:04.395Z,103192.94
2018-11-28T13:16:32.734Z,103193.85
2018-11-28T13:19:01.075Z,103193.20
2018-11-28T13:21:29.408Z,103195.00
2018-11-28T13:23:57.743Z,103202.50
2018-11-28T13:26:26.073Z,103204.22
2018-11-28T13:28:54.406Z,103208.70
2018-11-28T13:31:22.734Z,103204.08
2018-11-28T13:33:51.062Z,103204.98
2018-11-28T13:36:22.648Z,103209.14
2018-11-28T13:38:48.586Z,103209.91
2018-11-28T13:41:16.078Z,103210.80
2018-11-28T13:43:44.419Z,103206.13
2018-11-28T13:46:12.756Z,103206.03
2018-11-28T13:48:41.101Z,103207.14
2018-11-28T13:51:09.443Z,103211.30
2018-11-28T13:53:37.776Z,103205.44
2018-11-28T13:58:34.455Z,103205.98
2018-11-28T14:01:02.827Z,103206.42
2018-11-28T14:03:31.164Z,103208.06
2018-11-28T14:05:59.534Z,103210.77
2018-11-28T14:08:27.881Z,103205.07
2018-11-28T14:10:56.214Z,103206.09
2018-11-28T14:13:24.553Z,103213.32
2018-11-28T14:15:52.913Z,103218.06
2018-11-28T14:18:21.281Z,103221.23
2018-11-28T14:20:49.615Z,103217.15
2018-11-28T14:23:17.949Z,103218.05
2018-11-28T14:25:46.290Z,103214.27
2018-11-28T14:28:14.620Z,103219.91
2018-11-28T14:30:42.951Z,103223.44
2018-11-28T14:33:11.310Z,103224.49
2018-11-28T14:35:39.649Z,103230.37
2018-11-28T14:38:07.988Z,103231.99
2018-11-28T14:40:36.327Z,103228.84
2018-11-28T14:43:04.662Z,103236.84
2018-11-28T14:45:33.017Z,103241.52
2018-11-28T14:48:01.339Z,103242.14
2018-11-28T14:50:29.763Z,103242.98
2018-11-28T14:52:58.106Z,103243.53
2018-11-28T14:55:26.431Z,103238.36
2018-11-28T14:57:54.767Z,103237.48
2018-11-28T15:00:23.113Z,103234.63
2018-11-28T15:02:51.463Z,103233.50
2018-11-28T15:05:19.827Z,103239.44
2018-11-28T15:07:48.159Z,103239.05
2018-11-28T15:10:16.496Z,103244.78
2018-11-28T15:12:45.188Z,103248.08
2018-11-28T15:15:15.105Z,103246.95
2018-11-28T15:17:43.435Z,103247.56
2018-11-28T15:20:11.838Z,103250.84
2018-11-28T15:22:40.134Z,103252.95
2018-11-28T15:25:08.476Z,103251.67
2018-11-28T15:27:36.806Z,103253.45
2018-11-28T15:30:05.156Z,103255.45
2018-11-28T15:32:33.476Z,103255.63
2018-11-28T15:35:01.826Z,103255.59
2018-11-28T15:37:30.164Z,103261.13
2018-11-28T15:39:58.691Z,103261.05
2018-11-28T15:42:27.037Z,103265.81
2018-11-28T15:44:55.387Z,103268.28
2018-11-28T15:47:23.738Z,103270.25
2018-11-28T15:49:52.078Z,103274.92
2018-11-28T15:52:20.433Z,103272.34
2018-11-28T15:54:48.785Z,103264.63
2018-11-28T15:57:17.127Z,103263.20
2018-11-28T15:59:45.464Z,103263.63
2018-11-28T16:02:13.810Z,103265.33
2018-11-28T16:04:42.172Z,103264.36
2018-11-28T16:07:10.506Z,103262.05
2018-11-28T16:09:39.238Z,103265.58
2018-11-28T16:12:07.578Z,103272.04
2018-11-28T16:14:36.219Z,103269.34
2018-11-28T16:17:04.567Z,103270.30
2018-11-28T16:19:32.902Z,103269.77
2018-11-28T16:22:01.252Z,103265.72
2018-11-28T16:24:29.829Z,103269.23
2018-11-28T16:26:57.914Z,103270.11
2018-11-28T16:29:26.256Z,103271.63
2018-11-28T16:31:54.604Z,103269.08
2018-11-28T16:34:22.954Z,103272.74
2018-11-28T16:36:51.297Z,103275.39
2018-11-28T16:39:19.922Z,103278.39
2018-11-28T16:41:48.262Z,103275.22
2018-11-28T16:44:16.609Z,103279.47
2018-11-28T16:46:44.944Z,103282.22
2018-11-28T16:49:13.304Z,103286.61
2018-11-28T16:51:41.650Z,103284.09
2018-11-28T16:54:10.006Z,103289.00
2018-11-28T16:56:38.559Z,103288.05
2018-11-28T16:59:06.963Z,103289.82
2018-11-28T17:01:35.325Z,103289.79
2018-11-28T17:04:03.660Z,103285.06
2018-11-28T17:06:32.006Z,103285.97
2018-11-28T17:09:04.696Z,103283.63
2018-11-28T17:11:33.657Z,103287.98
2018-11-28T17:14:02.005Z,103292.03
2018-11-28T17:16:31.084Z,103297.72
2018-11-28T17:18:59.442Z,103294.06
2018-11-28T17:21:27.830Z,103293.80
2018-11-28T17:23:56.216Z,103300.29
2018-11-28T17:26:24.582Z,103298.97
2018-11-28T17:28:52.904Z,103303.16
2018-11-28T17:31:21.316Z,103302.47
2018-11-28T17:33:49.623Z,103305.88
2018-11-28T17:36:18.031Z,103304.36
2018-11-28T17:38:46.413Z,103298.86
2018-11-28T17:41:14.974Z,103295.56
2018-11-28T17:43:43.097Z,103300.19
2018-11-28T17:46:11.449Z,103300.78
2018-11-28T17:48:40.018Z,103296.64
2018-11-28T17:51:08.153Z,103298.80
2018-11-28T17:53:36.531Z,103302.24
2018-11-28T17:56:05.290Z,103302.72
2018-11-28T17:58:33.702Z,103309.38
2018-11-28T18:01:02.060Z,103309.69
2018-11-28T18:03:30.407Z,103316.15
2018-11-28T18:05:58.760Z,103315.30
2018-11-28T18:08:27.148Z,103312.73
2018-11-28T18:10:55.503Z,103313.52
2018-11-28T18:13:23.966Z,103315.40
2018-11-28T18:15:52.320Z,103321.78
2018-11-28T18:18:20.691Z,103323.38
2018-11-28T18:20:50.371Z,103328.16
2018-11-28T18:23:17.634Z,103327.53
2018-11-28T18:25:45.979Z,103330.51
2018-11-28T18:28:14.613Z,103329.53
2018-11-28T18:30:43.025Z,103328.56
2018-11-28T18:33:11.389Z,103333.80
2018-11-28T18:35:39.724Z,103338.41
2018-11-28T18:38:08.061Z,103336.06
2018-11-28T18:40:36.413Z,103331.81
2018-11-28T18:43:05.105Z,103323.69
2018-11-28T18:45:33.446Z,103329.39
2018-11-28T18:48:01.811Z,103333.22
2018-11-28T18:50:30.180Z,103333.76
2018-11-28T18:52:58.535Z,103329.89
2018-11-28T18:55:26.913Z,103336.87
2018-11-28T18:57:55.282Z,103336.91
2018-11-28T19:00:23.660Z,103340.57
2018-11-28T19:02:52.002Z,103342.00
2018-11-28T19:05:20.353Z,103341.48
2018-11-28T19:07:48.688Z,103349.70
2018-11-28T19:10:17.037Z,103355.73
2018-11-28T19:12:45.382Z,103356.42
2018-11-28T19:15:13.724Z,103358.95
2018-11-28T19:17:42.063Z,103359.18
2018-11-28T19:20:10.413Z,103357.43
2018-11-28T19:22:38.741Z,103357.64
2018-11-28T19:25:07.105Z,103358.67
2018-11-28T19:27:35.437Z,103347.14
2018-11-28T19:30:03.804Z,103341.08
2018-11-28T19:32:32.155Z,103345.66
2018-11-28T19:35:00.518Z,103346.83
2018-11-28T19:37:28.855Z,103350.04
2018-11-28T19:39:57.183Z,103348.48
2018-11-28T19:42:25.532Z,103350.20
2018-11-28T19:44:53.883Z,103353.09
2018-11-28T19:47:22.299Z,103356.33
2018-11-28T19:49:50.642Z,103360.77
2018-11-28T19:52:19.066Z,103353.93
2018-11-28T19:54:47.427Z,103360.30
2018-11-28T19:57:15.776Z,103358.14
2018-11-28T19:59:44.861Z,103361.89
2018-11-28T20:02:13.333Z,103366.49
2018-11-28T20:04:41.646Z,103360.56
2018-11-28T20:07:09.996Z,103363.84
2018-11-28T20:09:38.353Z,103373.41
2018-11-28T20:12:06.734Z,103376.46
2018-11-28T20:14:35.156Z,103376.92
2018-11-28T20:17:03.470Z,103381.14
2018-11-28T20:19:31.804Z,103380.42
2018-11-28T20:22:01.179Z,103377.61
2018-11-28T20:24:29.524Z,103371.00
2018-11-28T20:26:57.871Z,103362.52
2018-11-28T20:29:26.209Z,103358.83
2018-11-28T20:31:54.593Z,103356.48
2018-11-28T20:34:23.039Z,103357.25
2018-11-28T20:36:51.374Z,103365.11
2018-11-28T20:39:19.710Z,103365.19
2018-11-28T20:41:48.093Z,103356.09
2018-11-28T20:44:16.444Z,103361.14
2018-11-28T20:46:44.811Z,103357.23
2018-11-28T20:49:13.135Z,103353.30
2018-11-28T20:51:41.462Z,103355.75
2018-11-28T20:54:09.791Z,103353.48
2018-11-28T20:56:38.130Z,103363.23
2018-11-28T20:59:06.473Z,103361.63
2018-11-28T21:01:34.817Z,103363.36
2018-11-28T21:04:03.159Z,103368.56
2018-11-28T21:06:31.494Z,103365.59
2018-11-28T21:08:59.846Z,103362.66
2018-11-28T21:11:28.178Z,103351.87
2018-11-28T21:13:56.513Z,103350.15
2018-11-28T21:16:24.882Z,103345.58
2018-11-28T21:18:53.208Z,103346.76
2018-11-28T21:21:21.557Z,103343.95
2018-11-28T21:23:49.920Z,103346.38
2018-11-28T21:26:18.298Z,103341.89
2018-11-28T21:28:46.682Z,103337.99
2018-11-28T21:31:15.168Z,103335.69
2018-11-28T21:33:43.516Z,103338.97
2018-11-28T21:36:12.079Z,103336.12
2018-11-28T21:38:40.196Z,103334.48
2018-11-28T21:41:08.534Z,103334.20
2018-11-28T21:43:36.888Z,103326.32
2018-11-28T21:46:05.217Z,103325.89
2018-11-28T21:48:33.567Z,103329.72
2018-11-28T21:51:01.935Z,103329.58
2018-11-28T21:53:30.357Z,103324.46
2018-11-28T21:55:58.692Z,103326.17
2018-11-28T21:58:28.457Z,103324.22
2018-11-28T22:00:55.449Z,103324.06
2018-11-28T22:03:24.266Z,103322.90
2018-11-28T22:05:52.600Z,103324.63
2018-11-28T22:08:21.573Z,103323.45
2018-11-28T22:10:49.902Z,103320.72
2018-11-28T22:13:18.249Z,103321.46
2018-11-28T22:15:46.566Z,103317.41
2018-11-28T22:18:14.992Z,103323.92
2018-11-28T22:20:43.311Z,103327.16
2018-11-28T22:23:11.664Z,103321.70
2018-11-28T22:25:39.998Z,103325.95
2018-11-28T22:28:08.559Z,103337.43
2018-11-28T22:30:36.676Z,103340.20
2018-11-28T22:33:05.006Z,103332.59
2018-11-28T22:35:33.351Z,103332.81
2018-11-28T22:38:01.685Z,103333.76
2018-11-28T22:40:30.022Z,103329.58
2018-11-28T22:42:58.363Z,103332.08
2018-11-28T22:45:26.697Z,103329.64
2018-11-28T22:47:55.034Z,103335.30
2018-11-28T22:50:23.373Z,103341.16
2018-11-28T22:52:51.711Z,103335.76
2018-11-28T22:55:20.056Z,103339.16
2018-11-28T22:57:48.388Z,103332.05
2018-11-28T23:00:16.868Z,103333.80
2018-11-28T23:02:45.190Z,103333.80
2018-11-28T23:05:13.417Z,103329.55
2018-11-28T23:07:43.023Z,103329.22
2018-11-28T23:10:11.374Z,103326.05
2018-11-28T23:12:39.731Z,103329.41
2018-11-28T23:15:08.064Z,103329.98
2018-11-28T23:17:36.400Z,103331.72
2018-11-28T23:20:04.721Z,103335.73
2018-11-28T23:22:33.054Z,103332.84
2018-11-28T23:25:01.395Z,103335.54
2018-11-28T23:27:29.715Z,103337.65
2018-11-28T23:29:58.043Z,103335.19
2018-11-28T23:32:26.360Z,103326.91
2018-11-28T23:34:54.690Z,103328.91
2018-11-28T23:37:23.016Z,103325.05
2018-11-28T23:39:51.364Z,103325.48
2018-11-28T23:42:19.692Z,103316.11
2018-11-28T23:44:48.027Z,103311.02
2018-11-28T23:47:16.374Z,103307.22
2018-11-28T23:49:44.708Z,103313.28
2018-11-28T23:52:13.055Z,103306.38
2018-11-28T23:54:41.397Z,103308.66
2018-11-28T23:57:09.729Z,103312.16
2018-11-28T23:59:38.070Z,103314.06
